createdAt,value
2019-05-06T00:02:13.868Z,96951.09
2019-05-06T00:07:08.460Z,96944.35
2019-05-06T00:12:03.996Z,96946.64
2019-05-06T00:16:58.921Z,96937.42
2019-05-06T00:21:54.157Z,96951.84
2019-05-06T00:26:57.185Z,96943.05
2019-05-06T00:31:49.589Z,96949.42
2019-05-06T00:36:44.184Z,96949.47
2019-05-06T00:41:38.908Z,96953.20
2019-05-06T00:46:34.481Z,96951.25
2019-05-06T00:51:29.152Z,96954.58
2019-05-06T00:56:24.429Z,96951.38
2019-05-06T01:01:26.983Z,96958.10
2019-05-06T01:06:15.675Z,96952.78
2019-05-06T01:11:10.470Z,96959.06
2019-05-06T01:16:05.282Z,96957.22
2019-05-06T01:21:11.903Z,96954.90
2019-05-06T01:26:06.481Z,96958.07
2019-05-06T01:31:01.066Z,96958.45
2019-05-06T01:35:55.665Z,96968.11
2019-05-06T01:40:51.895Z,96964.70
2019-05-06T01:45:46.462Z,96970.94
2019-05-06T01:50:41.052Z,96974.19
2019-05-06T01:55:35.643Z,96979.12
2019-05-06T02:00:30.388Z,96975.30
2019-05-06T02:05:24.971Z,96985.30
2019-05-06T02:10:19.551Z,96984.09
2019-05-06T02:15:14.669Z,96989.44
2019-05-06T02:20:10.735Z,96997.20
2019-05-06T02:25:14.503Z,96995.91
2019-05-06T02:30:11.629Z,97004.84
2019-05-06T02:35:21.866Z,97005.03
2019-05-06T02:40:25.234Z,97010.88
2019-05-06T02:45:20.292Z,97009.98
2019-05-06T02:50:16.639Z,97015.09
2019-05-06T02:55:12.975Z,97008.87
2019-05-06T03:00:15.669Z,97009.95
2019-05-06T03:05:13.031Z,97021.39
2019-05-06T03:10:12.927Z,97017.36
2019-05-06T03:15:08.269Z,97018.44
2019-05-06T03:20:04.652Z,97031.63
2019-05-06T03:25:06.451Z,97029.13
2019-05-06T03:29:57.182Z,97028.28
2019-05-06T03:35:16.251Z,97030.66
2019-05-06T03:39:48.135Z,97033.94
2019-05-06T03:44:44.390Z,97038.05
2019-05-06T03:49:42.575Z,97039.67
2019-05-06T03:54:45.023Z,97040.46
2019-05-06T03:59:38.539Z,97047.34
2019-05-06T04:04:33.395Z,97047.85
2019-05-06T04:09:28.119Z,97054.52
2019-05-06T04:14:23.853Z,97051.09
2019-05-06T04:19:29.093Z,97053.83
2019-05-06T04:24:33.911Z,97067.28
2019-05-06T04:29:28.956Z,97059.79
2019-05-06T04:34:23.697Z,97060.66
2019-05-06T04:39:19.348Z,97057.85
2019-05-06T04:44:14.193Z,97064.47
2019-05-06T04:49:14.036Z,97066.63
2019-05-06T04:54:05.881Z,97069.16
2019-05-06T04:59:05.743Z,97058.92
2019-05-06T05:03:57.500Z,97071.28
2019-05-06T05:08:53.451Z,97082.08
2019-05-06T05:13:48.028Z,97092.13
2019-05-06T05:18:46.955Z,97092.50
2019-05-06T05:23:42.839Z,97096.33
2019-05-06T05:28:37.711Z,97100.23
2019-05-06T05:33:32.857Z,97109.98
2019-05-06T05:38:27.686Z,97108.98
2019-05-06T05:43:39.774Z,97118.38
2019-05-06T05:48:39.704Z,97117.14
2019-05-06T05:53:34.771Z,97118.81
2019-05-06T05:58:29.668Z,97122.41
2019-05-06T06:03:24.386Z,97122.66
2019-05-06T06:08:21.821Z,97120.91
2019-05-06T06:13:15.671Z,97124.06
2019-05-06T06:18:28.478Z,97126.02
2019-05-06T06:23:24.854Z,97135.61
2019-05-06T06:28:19.738Z,97134.71
2019-05-06T06:33:14.744Z,97135.34
2019-05-06T06:38:24.439Z,97130.07
2019-05-06T06:43:20.671Z,97125.95
2019-05-06T06:48:15.549Z,97122.63
2019-05-06T06:53:12.174Z,97124.81
2019-05-06T06:58:12.009Z,97123.69
2019-05-06T07:03:12.311Z,97127.18
2019-05-06T07:08:12.545Z,97116.71
2019-05-06T07:13:09.488Z,97118.41
2019-05-06T07:18:04.751Z,97119.33
2019-05-06T07:23:01.943Z,97114.06
2019-05-06T07:27:56.854Z,97114.19
2019-05-06T07:32:52.750Z,97113.02
2019-05-06T07:37:47.578Z,97113.14
2019-05-06T07:42:43.841Z,97106.44
2019-05-06T07:47:42.465Z,97106.75
2019-05-06T07:52:36.462Z,97109.27
2019-05-06T07:57:33.060Z,97105.41
2019-05-06T08:02:27.547Z,97104.66
2019-05-06T08:07:22.523Z,97100.47
2019-05-06T08:12:23.636Z,97113.84
2019-05-06T08:17:23.805Z,97104.14
2019-05-06T08:22:22.713Z,97102.98
2019-05-06T08:27:18.928Z,97100.95
2019-05-06T08:32:14.903Z,97095.52
2019-05-06T08:37:17.332Z,97096.68
2019-05-06T08:42:13.519Z,97100.93
2019-05-06T08:47:08.169Z,97092.53
2019-05-06T08:52:04.444Z,97087.56
2019-05-06T08:57:05.260Z,97080.69
2019-05-06T09:02:06.697Z,97088.00
2019-05-06T09:07:08.567Z,97090.70
2019-05-06T09:12:03.460Z,97088.35
2019-05-06T09:17:11.838Z,97094.45
2019-05-06T09:22:09.793Z,97107.14
2019-05-06T09:27:14.708Z,97100.39
2019-05-06T09:32:14.947Z,97096.55
2019-05-06T09:37:14.242Z,97104.59
2019-05-06T09:42:12.660Z,97095.49
2019-05-06T09:47:12.627Z,97102.32
2019-05-06T09:52:07.577Z,97110.69
2019-05-06T09:57:06.384Z,97101.58
2019-05-06T10:02:07.402Z,97096.45
2019-05-06T10:07:12.007Z,97083.66
2019-05-06T10:12:13.259Z,97091.23
2019-05-06T10:17:13.393Z,97090.04
2019-05-06T10:22:08.290Z,97090.33
2019-05-06T10:27:02.920Z,97088.62
2019-05-06T10:32:05.197Z,97093.84
2019-05-06T10:37:19.447Z,97086.81
2019-05-06T10:42:24.091Z,97087.02
2019-05-06T10:47:19.287Z,97089.52
2019-05-06T10:52:24.329Z,97092.80
2019-05-06T10:57:52.944Z,97104.59
2019-05-06T11:02:59.319Z,97102.98
2019-05-06T11:08:02.352Z,97116.07
2019-05-06T11:13:03.817Z,97114.47
2019-05-06T11:18:04.163Z,97118.06
2019-05-06T11:23:06.611Z,97121.52
2019-05-06T11:28:08.252Z,97130.39
2019-05-06T11:33:14.728Z,97133.31
2019-05-06T11:38:14.214Z,97135.53
2019-05-06T11:43:11.970Z,97134.03
2019-05-06T11:48:14.550Z,97129.89
2019-05-06T11:53:15.555Z,97131.84
2019-05-06T11:58:29.857Z,97137.89
2019-05-06T12:03:24.520Z,97135.81
2019-05-06T12:08:22.199Z,97131.28
2019-05-06T12:13:19.906Z,97131.73
2019-05-06T12:18:14.644Z,97131.75
2019-05-06T12:23:09.304Z,97134.53
2019-05-06T12:28:05.482Z,97136.48
2019-05-06T12:33:03.267Z,97136.02
2019-05-06T12:38:05.179Z,97131.08
2019-05-06T12:43:14.386Z,97134.70
2019-05-06T12:48:13.106Z,97121.27
2019-05-06T12:53:08.399Z,97121.09
2019-05-06T12:58:03.366Z,97124.54
2019-05-06T13:02:58.274Z,97126.59
2019-05-06T13:07:53.897Z,97122.93
2019-05-06T13:12:53.873Z,97114.73
2019-05-06T13:17:54.267Z,97112.53
2019-05-06T13:23:17.167Z,97114.02
2019-05-06T13:28:15.978Z,97112.91
2019-05-06T13:33:13.915Z,97103.64
2019-05-06T13:38:10.170Z,97115.64
2019-05-06T13:43:13.001Z,97111.61
2019-05-06T13:48:27.603Z,97112.06
2019-05-06T13:53:39.068Z,97115.43
2019-05-06T13:58:27.785Z,97113.39
2019-05-06T14:03:22.474Z,97114.09
2019-05-06T14:08:22.132Z,97112.44
2019-05-06T14:13:21.964Z,97114.27
2019-05-06T14:18:16.152Z,97109.23
2019-05-06T14:23:12.668Z,97103.92
2019-05-06T14:28:23.692Z,97107.43
2019-05-06T14:33:19.955Z,97111.73
2019-05-06T14:38:14.575Z,97113.23
2019-05-06T14:43:09.246Z,97112.90
2019-05-06T14:48:03.916Z,97117.12
2019-05-06T14:52:58.504Z,97120.00
2019-05-06T14:57:53.562Z,97124.45
2019-05-06T15:02:48.485Z,97119.70
2019-05-06T15:07:43.385Z,97113.16
2019-05-06T15:12:45.699Z,97118.98
2019-05-06T15:17:42.449Z,97110.19
2019-05-06T15:22:36.734Z,97113.80
2019-05-06T15:27:33.457Z,97114.23
2019-05-06T15:32:35.136Z,97116.41
2019-05-06T15:37:33.847Z,97114.44
2019-05-06T15:42:27.994Z,97118.98
2019-05-06T15:47:22.823Z,97127.74
2019-05-06T15:52:17.670Z,97131.61
2019-05-06T15:57:12.348Z,97131.25
2019-05-06T16:02:06.921Z,97136.22
2019-05-06T16:07:02.853Z,97126.95
2019-05-06T16:11:57.830Z,97130.13
2019-05-06T16:16:52.911Z,97135.39
2019-05-06T16:21:47.730Z,97132.20
2019-05-06T16:26:42.555Z,97131.55
2019-05-06T16:31:38.637Z,97130.23
2019-05-06T16:36:33.211Z,97126.59
2019-05-06T16:41:27.816Z,97124.25
2019-05-06T16:46:23.037Z,97127.59
2019-05-06T16:51:18.139Z,97114.95
2019-05-06T16:56:14.981Z,97119.08
2019-05-06T17:01:14.907Z,97126.22
2019-05-06T17:06:14.109Z,97127.30
2019-05-06T17:11:08.712Z,97121.22
2019-05-06T17:16:03.458Z,97121.41
2019-05-06T17:20:58.049Z,97115.50
2019-05-06T17:25:52.694Z,97121.28
2019-05-06T17:30:53.573Z,97125.52
2019-05-06T17:35:47.950Z,97133.39
2019-05-06T17:40:42.988Z,97137.88
2019-05-06T17:46:01.145Z,97141.94
2019-05-06T17:50:46.199Z,97142.00
2019-05-06T17:55:40.787Z,97146.14
2019-05-06T18:00:35.618Z,97152.70
2019-05-06T18:05:32.334Z,97159.86
2019-05-06T18:10:26.538Z,97161.52
2019-05-06T18:15:22.586Z,97163.91
2019-05-06T18:20:18.882Z,97161.14
2019-05-06T18:25:13.563Z,97159.23
2019-05-06T18:30:17.778Z,97160.09
2019-05-06T18:35:07.030Z,97164.14
2019-05-06T18:40:01.729Z,97168.06
2019-05-06T18:44:56.338Z,97174.44
2019-05-06T18:49:52.303Z,97184.20
2019-05-06T18:54:47.311Z,97181.38
2019-05-06T18:59:42.620Z,97182.77
2019-05-06T19:04:39.172Z,97185.86
2019-05-06T19:09:38.202Z,97188.30
2019-05-06T19:14:33.328Z,97199.27
2019-05-06T19:19:28.302Z,97195.23
2019-05-06T19:24:22.909Z,97199.42
2019-05-06T19:29:17.529Z,97214.58
2019-05-06T19:34:12.895Z,97217.37
2019-05-06T19:39:08.741Z,97218.29
2019-05-06T19:44:03.370Z,97217.20
2019-05-06T19:48:57.958Z,97217.81
2019-05-06T19:53:52.552Z,97212.49
2019-05-06T19:58:47.132Z,97213.50
2019-05-06T20:03:41.750Z,97217.66
2019-05-06T20:08:43.469Z,97216.06
2019-05-06T20:13:38.077Z,97211.44
2019-05-06T20:18:32.897Z,97209.95
2019-05-06T20:23:27.568Z,97214.02
2019-05-06T20:28:22.769Z,97208.30
2019-05-06T20:33:18.513Z,97206.38
2019-05-06T20:38:13.613Z,97201.61
2019-05-06T20:43:17.402Z,97205.32
2019-05-06T20:48:04.680Z,97201.30
2019-05-06T20:52:59.325Z,97201.34
2019-05-06T20:57:53.895Z,97207.06
2019-05-06T21:02:48.476Z,97201.58
2019-05-06T21:07:43.340Z,97203.20
2019-05-06T21:12:38.032Z,97198.90
2019-05-06T21:17:32.613Z,97200.61
2019-05-06T21:22:27.199Z,97193.46
2019-05-06T21:27:23.043Z,97196.47
2019-05-06T21:32:17.856Z,97194.48
2019-05-06T21:37:12.440Z,97189.23
2019-05-06T21:42:07.108Z,97182.91
2019-05-06T21:47:02.873Z,97183.32
2019-05-06T21:51:57.969Z,97180.27
2019-05-06T21:56:53.182Z,97185.67
2019-05-06T22:01:48.313Z,97178.88
2019-05-06T22:06:45.599Z,97174.64
2019-05-06T22:11:39.206Z,97168.70
2019-05-06T22:16:33.801Z,97166.70
2019-05-06T22:21:28.391Z,97169.70
2019-05-06T22:26:23.808Z,97165.78
2019-05-06T22:31:18.482Z,97158.15
2019-05-06T22:36:13.310Z,97158.01
2019-05-06T22:41:08.662Z,97156.13
2019-05-06T22:46:03.473Z,97146.95
2019-05-06T22:50:58.067Z,97149.28
2019-05-06T22:55:53.494Z,97145.30
2019-05-06T23:00:53.706Z,97147.66
2019-05-06T23:05:48.609Z,97155.63
2019-05-06T23:10:43.264Z,97154.23
2019-05-06T23:15:37.854Z,97156.19
2019-05-06T23:20:32.451Z,97149.02
2019-05-06T23:25:27.040Z,97155.42
2019-05-06T23:30:23.631Z,97148.05
2019-05-06T23:35:17.967Z,97149.36
2019-05-06T23:41:07.385Z,97143.67
2019-05-06T23:46:56.216Z,97154.09
2019-05-06T23:52:45.069Z,97149.86
2019-05-06T23:57:37.970Z,97143.63
